createdAt,value
2019-03-26T00:03:37.515Z,2.20
2019-03-26T00:06:19.011Z,2.40
2019-03-26T00:09:00.968Z,2.30
2019-03-26T00:11:43.013Z,2.30
2019-03-26T00:14:24.908Z,2.30
2019-03-26T00:17:09.004Z,2.20
2019-03-26T00:19:50.974Z,2.20
2019-03-26T00:22:32.931Z,2.20
2019-03-26T00:25:14.980Z,2.20
2019-03-26T00:27:56.933Z,2.30
2019-03-26T00:30:39.967Z,2.30
2019-03-26T00:33:21.941Z,2.30
2019-03-26T00:36:03.907Z,2.30
2019-03-26T00:38:45.828Z,2.30
2019-03-26T00:41:26.915Z,2.30
2019-03-26T00:44:08.953Z,2.30
2019-03-26T00:46:50.844Z,2.30
2019-03-26T00:49:32.831Z,2.30
2019-03-26T00:52:14.747Z,2.30
2019-03-26T00:54:57.647Z,2.30
2019-03-26T00:57:39.747Z,2.30
2019-03-26T01:00:21.571Z,2.20
2019-03-26T01:03:03.436Z,2.10
2019-03-26T01:05:46.156Z,2.30
2019-03-26T01:08:28.342Z,2.30
2019-03-26T01:11:10.119Z,2.20
2019-03-26T01:13:51.964Z,2.30
2019-03-26T01:16:33.827Z,2.30
2019-03-26T01:19:15.821Z,2.30
2019-03-26T01:21:57.825Z,2.30
2019-03-26T01:24:39.728Z,2.30
2019-03-26T01:27:21.593Z,2.40
2019-03-26T01:30:02.774Z,2.30
2019-03-26T01:32:44.657Z,2.40
2019-03-26T01:35:26.404Z,2.50
2019-03-26T01:38:08.353Z,2.40
2019-03-26T01:40:50.205Z,2.50
2019-03-26T01:43:32.303Z,2.50
2019-03-26T01:46:14.135Z,2.40
2019-03-26T01:48:56.159Z,2.30
2019-03-26T01:51:38.073Z,2.40
2019-03-26T01:54:19.832Z,2.40
2019-03-26T01:57:01.792Z,2.50
2019-03-26T01:59:43.454Z,2.40
2019-03-26T02:02:25.304Z,2.50
2019-03-26T02:05:07.232Z,2.50
2019-03-26T02:07:49.081Z,2.40
2019-03-26T02:10:30.051Z,2.50
2019-03-26T02:13:12.012Z,2.50
2019-03-26T02:15:53.879Z,2.40
2019-03-26T02:18:35.754Z,2.50
2019-03-26T02:21:17.852Z,2.50
2019-03-26T02:23:59.904Z,2.50
2019-03-26T02:26:41.727Z,2.50
2019-03-26T02:29:23.704Z,2.50
2019-03-26T02:32:05.919Z,2.60
2019-03-26T02:34:48.869Z,2.60
2019-03-26T02:37:30.737Z,2.50
2019-03-26T02:40:12.617Z,2.50
2019-03-26T02:42:53.637Z,2.50
2019-03-26T02:45:34.524Z,2.50
2019-03-26T02:48:16.350Z,2.50
2019-03-26T02:50:57.464Z,2.50
2019-03-26T02:53:39.462Z,2.50
2019-03-26T02:56:22.330Z,2.50
2019-03-26T02:59:04.250Z,2.40
2019-03-26T03:01:45.391Z,2.40
2019-03-26T03:04:28.325Z,2.50
2019-03-26T03:07:10.370Z,2.50
2019-03-26T03:09:52.418Z,2.50
2019-03-26T03:12:33.473Z,2.60
2019-03-26T03:15:15.535Z,2.60
2019-03-26T03:17:57.699Z,2.50
2019-03-26T03:20:39.633Z,2.60
2019-03-26T03:23:21.527Z,2.40
2019-03-26T03:26:03.560Z,2.40
2019-03-26T03:31:27.176Z,2.40
2019-03-26T03:34:09.035Z,2.40
2019-03-26T03:37:21.088Z,2.40
2019-03-26T03:40:03.112Z,2.30
2019-03-26T03:42:47.046Z,2.30
2019-03-26T03:45:29.784Z,2.40
2019-03-26T03:48:11.888Z,2.40
2019-03-26T03:50:55.729Z,2.50
2019-03-26T03:53:37.867Z,2.50
2019-03-26T03:56:19.584Z,2.50
2019-03-26T03:59:02.343Z,2.40
2019-03-26T04:01:44.314Z,2.50
2019-03-26T04:04:26.260Z,2.40
2019-03-26T04:07:07.996Z,2.40
2019-03-26T04:09:49.789Z,2.40
2019-03-26T04:12:31.789Z,2.40
2019-03-26T04:15:13.815Z,2.40
2019-03-26T04:17:55.722Z,2.40
2019-03-26T04:20:37.298Z,2.30
2019-03-26T04:23:18.634Z,2.40
2019-03-26T04:25:59.949Z,2.40
2019-03-26T04:28:41.021Z,2.40
2019-03-26T04:31:22.089Z,2.30
2019-03-26T04:34:04.069Z,2.30
2019-03-26T04:36:47.094Z,2.30
2019-03-26T04:39:28.090Z,2.30
2019-03-26T04:42:09.114Z,2.20
2019-03-26T04:44:50.879Z,2.20
2019-03-26T04:47:32.819Z,2.10
2019-03-26T04:50:01.159Z,2.30
2019-03-26T04:52:43.383Z,2.30
2019-03-26T04:55:25.349Z,2.30
2019-03-26T04:58:09.264Z,2.40
2019-03-26T05:01:10.413Z,2.30
2019-03-26T05:03:52.380Z,2.40
2019-03-26T05:06:38.291Z,2.40
2019-03-26T05:09:18.264Z,2.40
2019-03-26T05:12:02.385Z,2.50
2019-03-26T05:14:44.252Z,2.50
2019-03-26T05:17:46.225Z,2.50
2019-03-26T05:20:27.230Z,2.50
2019-03-26T05:23:08.926Z,2.50
2019-03-26T05:25:50.850Z,2.40
2019-03-26T05:28:32.619Z,2.70
2019-03-26T05:31:14.562Z,2.60
2019-03-26T05:33:57.654Z,2.60
2019-03-26T05:36:50.661Z,2.60
2019-03-26T05:39:23.632Z,2.60
2019-03-26T05:42:05.528Z,2.60
2019-03-26T05:44:48.793Z,2.60
2019-03-26T05:47:30.830Z,2.60
2019-03-26T05:49:58.940Z,2.70
2019-03-26T05:52:40.841Z,2.70
2019-03-26T05:55:22.772Z,2.60
2019-03-26T05:58:05.656Z,2.70
2019-03-26T06:00:47.793Z,2.70
2019-03-26T06:03:29.572Z,2.70
2019-03-26T06:06:11.595Z,2.70
2019-03-26T06:08:53.192Z,2.70
2019-03-26T06:11:37.096Z,2.70
2019-03-26T06:14:19.111Z,2.70
2019-03-26T06:17:00.964Z,2.80
2019-03-26T06:19:43.091Z,2.70
2019-03-26T06:22:24.176Z,2.70
2019-03-26T06:25:05.882Z,2.70
2019-03-26T06:27:47.861Z,2.80
2019-03-26T06:30:29.809Z,2.80
2019-03-26T06:33:12.807Z,2.80
2019-03-26T06:35:54.563Z,2.80
2019-03-26T06:38:36.448Z,3.10
2019-03-26T06:41:18.123Z,3.10
2019-03-26T06:44:01.033Z,3.20
2019-03-26T06:46:43.040Z,3.10
2019-03-26T06:52:06.104Z,3.10
2019-03-26T06:54:51.598Z,3.20
2019-03-26T06:57:35.796Z,3.30
2019-03-26T07:00:16.017Z,3.30
2019-03-26T07:02:57.904Z,3.30
2019-03-26T07:05:39.928Z,3.30
2019-03-26T07:08:22.020Z,3.50
2019-03-26T07:11:03.095Z,3.30
2019-03-26T07:13:45.076Z,3.40
2019-03-26T07:16:26.950Z,3.40
2019-03-26T07:19:08.645Z,3.30
2019-03-26T07:21:50.078Z,3.30
2019-03-26T07:24:31.591Z,3.40
2019-03-26T07:27:13.395Z,3.40
2019-03-26T07:29:55.352Z,3.40
2019-03-26T07:32:37.375Z,3.40
2019-03-26T07:35:19.276Z,3.30
2019-03-26T07:38:01.160Z,3.40
2019-03-26T07:40:43.144Z,3.50
2019-03-26T07:43:25.020Z,3.30
2019-03-26T07:46:06.821Z,3.30
2019-03-26T07:48:48.707Z,3.40
2019-03-26T07:51:30.758Z,3.40
2019-03-26T07:54:12.644Z,3.40
2019-03-26T07:56:54.563Z,3.40
2019-03-26T07:59:36.370Z,3.50
2019-03-26T08:02:18.347Z,3.60
2019-03-26T08:05:00.471Z,3.60
2019-03-26T08:07:43.105Z,3.60
2019-03-26T08:10:25.136Z,3.60
2019-03-26T08:13:07.095Z,3.60
2019-03-26T08:15:48.690Z,3.60
2019-03-26T08:18:30.668Z,3.50
2019-03-26T08:21:11.713Z,3.60
2019-03-26T08:23:53.533Z,3.60
2019-03-26T08:26:35.347Z,3.60
2019-03-26T08:29:17.199Z,3.60
2019-03-26T08:31:45.288Z,3.60
2019-03-26T08:34:26.988Z,3.60
2019-03-26T08:37:08.027Z,3.60
2019-03-26T08:39:49.059Z,3.60
2019-03-26T08:42:30.803Z,3.90
2019-03-26T08:45:12.775Z,4.00
2019-03-26T08:47:54.467Z,4.10
2019-03-26T08:50:36.508Z,4.10
2019-03-26T08:53:19.375Z,4.10
2019-03-26T08:56:01.112Z,4.10
2019-03-26T08:58:42.949Z,4.10
2019-03-26T09:01:24.040Z,4.10
2019-03-26T09:04:05.985Z,4.10
2019-03-26T09:06:47.985Z,4.10
2019-03-26T09:09:29.685Z,4.10
2019-03-26T09:12:11.496Z,4.20
2019-03-26T09:14:53.311Z,4.40
2019-03-26T09:17:35.381Z,4.30
2019-03-26T09:20:17.377Z,4.40
2019-03-26T09:22:59.464Z,4.40
2019-03-26T09:25:41.580Z,4.40
2019-03-26T09:28:23.372Z,4.50
2019-03-26T09:31:05.501Z,4.50
2019-03-26T09:33:47.200Z,4.60
2019-03-26T09:36:29.099Z,4.50
2019-03-26T09:39:11.092Z,4.60
2019-03-26T09:41:53.055Z,4.80
2019-03-26T09:44:35.028Z,4.90
2019-03-26T09:47:17.083Z,4.80
2019-03-26T09:49:58.796Z,4.70
2019-03-26T09:52:40.645Z,4.70
2019-03-26T09:55:22.531Z,4.80
2019-03-26T09:58:04.696Z,4.70
2019-03-26T10:00:46.645Z,4.50
2019-03-26T10:03:28.336Z,4.30
2019-03-26T10:06:22.566Z,4.40
2019-03-26T10:08:54.164Z,4.10
2019-03-26T10:11:36.147Z,4.10
2019-03-26T10:14:18.137Z,4.20
2019-03-26T10:16:59.936Z,4.10
2019-03-26T10:19:42.650Z,4.20
2019-03-26T10:22:24.643Z,4.20
2019-03-26T10:25:05.709Z,4.40
2019-03-26T10:27:47.542Z,4.40
2019-03-26T10:30:29.457Z,4.30
2019-03-26T10:33:11.424Z,4.40
2019-03-26T10:35:53.453Z,4.40
2019-03-26T10:38:35.349Z,4.40
2019-03-26T10:41:18.651Z,4.20
2019-03-26T10:44:00.436Z,4.20
2019-03-26T10:46:44.398Z,4.00
2019-03-26T10:49:25.364Z,4.10
2019-03-26T10:52:07.305Z,4.10
2019-03-26T10:54:49.388Z,4.00
2019-03-26T10:57:31.102Z,4.10
2019-03-26T11:00:13.143Z,4.10
2019-03-26T11:02:54.997Z,4.10
2019-03-26T11:05:36.868Z,4.20
2019-03-26T11:08:18.703Z,4.10
2019-03-26T11:11:00.480Z,4.10
2019-03-26T11:13:42.452Z,4.20
2019-03-26T11:16:24.267Z,4.30
2019-03-26T11:19:05.958Z,4.60
2019-03-26T11:21:47.980Z,4.80
2019-03-26T11:24:29.883Z,5.10
2019-03-26T11:27:11.839Z,5.40
2019-03-26T11:29:53.703Z,5.70
2019-03-26T11:32:35.555Z,5.90
2019-03-26T11:37:58.429Z,5.80
2019-03-26T11:40:40.304Z,5.50
2019-03-26T11:43:22.255Z,5.20
2019-03-26T11:46:04.136Z,5.10
2019-03-26T11:48:46.102Z,4.90
2019-03-26T11:51:27.888Z,5.00
2019-03-26T11:54:09.722Z,5.00
2019-03-26T11:56:51.876Z,4.80
2019-03-26T11:59:33.928Z,4.60
2019-03-26T12:02:15.904Z,4.60
2019-03-26T12:04:57.773Z,4.70
2019-03-26T12:07:42.705Z,4.70
2019-03-26T12:10:24.477Z,4.80
2019-03-26T12:13:06.268Z,4.90
2019-03-26T12:15:48.030Z,4.90
2019-03-26T12:18:30.064Z,4.90
2019-03-26T12:21:12.009Z,5.20
2019-03-26T12:23:54.221Z,5.40
2019-03-26T12:26:36.181Z,5.50
2019-03-26T12:29:18.022Z,5.50
2019-03-26T12:32:00.068Z,5.60
2019-03-26T12:34:41.925Z,5.70
2019-03-26T12:37:24.132Z,5.60
2019-03-26T12:40:06.156Z,5.40
2019-03-26T12:42:48.354Z,5.60
2019-03-26T12:45:30.297Z,5.30
2019-03-26T12:48:12.132Z,5.40
2019-03-26T12:50:53.303Z,5.50
2019-03-26T12:53:35.232Z,5.80
2019-03-26T12:56:16.356Z,6.10
2019-03-26T12:58:58.315Z,5.80
2019-03-26T13:01:40.220Z,6.20
2019-03-26T13:04:22.027Z,6.00
2019-03-26T13:07:03.241Z,6.20
2019-03-26T13:09:45.015Z,6.30
2019-03-26T13:12:26.878Z,6.10
2019-03-26T13:15:08.659Z,5.90
2019-03-26T13:17:50.613Z,5.90
2019-03-26T13:20:32.534Z,6.10
2019-03-26T13:23:14.212Z,6.40
2019-03-26T13:25:56.003Z,6.40
2019-03-26T13:28:37.941Z,6.40
2019-03-26T13:31:19.955Z,6.30
2019-03-26T13:34:02.144Z,6.10
2019-03-26T13:36:44.052Z,6.10
2019-03-26T13:39:25.099Z,6.20
2019-03-26T13:42:07.252Z,6.30
2019-03-26T13:44:49.244Z,6.20
2019-03-26T13:47:31.268Z,6.20
2019-03-26T13:50:13.026Z,6.30
2019-03-26T13:52:54.181Z,6.20
2019-03-26T13:55:35.101Z,6.00
2019-03-26T13:58:17.059Z,6.00
2019-03-26T14:00:58.880Z,6.10
2019-03-26T14:03:40.926Z,6.10
2019-03-26T14:06:09.019Z,6.20
2019-03-26T14:08:50.775Z,6.30
2019-03-26T14:11:32.859Z,6.20
2019-03-26T14:14:14.759Z,6.20
2019-03-26T14:16:56.647Z,6.20
2019-03-26T14:19:37.628Z,6.30
2019-03-26T14:22:18.689Z,6.30
2019-03-26T14:25:00.687Z,6.20
2019-03-26T14:27:42.603Z,6.20
2019-03-26T14:30:24.482Z,6.20
2019-03-26T14:33:05.675Z,6.20
2019-03-26T14:35:47.472Z,6.20
2019-03-26T14:38:29.512Z,6.20
2019-03-26T14:41:11.314Z,6.00
2019-03-26T14:43:53.436Z,6.10
2019-03-26T14:46:34.638Z,6.10
2019-03-26T14:49:18.660Z,6.00
2019-03-26T14:52:00.412Z,6.00
2019-03-26T14:54:44.529Z,6.00
2019-03-26T14:57:26.380Z,6.00
2019-03-26T15:00:08.540Z,5.70
2019-03-26T15:02:52.297Z,5.80
2019-03-26T15:05:34.411Z,5.70
2019-03-26T15:08:16.268Z,5.60
2019-03-26T15:11:07.953Z,5.90
2019-03-26T15:13:42.143Z,5.90
2019-03-26T15:16:23.944Z,5.80
2019-03-26T15:19:06.064Z,5.70
2019-03-26T15:21:47.886Z,5.70
2019-03-26T15:24:29.863Z,5.70
2019-03-26T15:27:11.771Z,5.70
2019-03-26T15:29:53.899Z,5.70
2019-03-26T15:32:35.637Z,5.80
2019-03-26T15:35:17.620Z,5.70
2019-03-26T15:37:59.463Z,5.70
2019-03-26T15:40:41.511Z,5.60
2019-03-26T15:43:23.459Z,5.60
2019-03-26T15:46:05.504Z,5.70
2019-03-26T15:48:47.155Z,5.80
2019-03-26T15:51:29.203Z,5.90
2019-03-26T15:54:11.107Z,5.90
2019-03-26T15:56:52.965Z,6.00
2019-03-26T15:59:34.705Z,6.00
2019-03-26T16:02:16.672Z,6.00
2019-03-26T16:04:58.656Z,5.90
2019-03-26T16:07:40.587Z,6.00
2019-03-26T16:10:22.532Z,5.90
2019-03-26T16:13:04.500Z,5.90
2019-03-26T16:15:46.312Z,5.80
2019-03-26T16:18:28.069Z,5.70
2019-03-26T16:21:10.256Z,5.70
2019-03-26T16:23:52.065Z,5.60
2019-03-26T16:26:20.846Z,5.60
2019-03-26T16:29:17.884Z,5.50
2019-03-26T16:31:59.883Z,5.40
2019-03-26T16:34:41.749Z,5.50
2019-03-26T16:37:23.612Z,5.50
2019-03-26T16:40:05.628Z,5.40
2019-03-26T16:42:47.508Z,5.50
2019-03-26T16:45:29.269Z,5.30
2019-03-26T16:48:11.335Z,5.40
2019-03-26T16:50:52.496Z,5.50
2019-03-26T16:53:34.313Z,5.40
2019-03-26T16:56:16.262Z,5.40
2019-03-26T16:58:58.030Z,5.40
2019-03-26T17:01:40.009Z,5.30
2019-03-26T17:04:22.942Z,5.30
2019-03-26T17:07:04.940Z,5.30
2019-03-26T17:09:46.941Z,5.20
2019-03-26T17:12:29.056Z,5.10
2019-03-26T17:15:10.931Z,5.10
2019-03-26T17:17:52.797Z,5.00
2019-03-26T17:20:34.658Z,5.10
2019-03-26T17:23:16.926Z,5.00
2019-03-26T17:25:58.705Z,4.90
2019-03-26T17:28:40.795Z,4.90
2019-03-26T17:31:22.760Z,4.90
2019-03-26T17:34:23.764Z,4.80
2019-03-26T17:37:05.663Z,4.90
2019-03-26T17:39:47.564Z,4.90
2019-03-26T17:42:29.613Z,4.90
2019-03-26T17:45:11.729Z,4.80
2019-03-26T17:47:53.631Z,4.70
2019-03-26T17:50:35.594Z,4.60
2019-03-26T17:53:17.525Z,4.60
2019-03-26T17:55:59.471Z,4.50
2019-03-26T17:58:41.392Z,4.40
2019-03-26T18:01:22.508Z,4.50
2019-03-26T18:04:04.584Z,4.30
2019-03-26T18:06:46.508Z,4.20
2019-03-26T18:09:28.524Z,4.30
2019-03-26T18:12:10.664Z,4.20
2019-03-26T18:14:52.999Z,4.30
2019-03-26T18:17:34.897Z,4.30
2019-03-26T18:20:16.836Z,4.30
2019-03-26T18:22:58.904Z,4.20
2019-03-26T18:25:40.931Z,4.30
2019-03-26T18:28:22.920Z,4.30
2019-03-26T18:31:05.047Z,4.10
2019-03-26T18:33:47.197Z,4.20
2019-03-26T18:36:29.057Z,4.10
2019-03-26T18:39:11.132Z,4.10
2019-03-26T18:41:53.221Z,4.10
2019-03-26T18:44:35.228Z,4.00
2019-03-26T18:47:17.983Z,4.10
2019-03-26T18:49:59.908Z,3.90
2019-03-26T18:52:41.697Z,4.00
2019-03-26T18:55:09.843Z,4.00
2019-03-26T18:57:51.688Z,3.90
2019-03-26T19:00:33.571Z,3.90
2019-03-26T19:03:15.468Z,3.90
2019-03-26T19:05:57.432Z,3.90
2019-03-26T19:08:40.087Z,3.90
2019-03-26T19:11:22.072Z,3.90
2019-03-26T19:14:04.033Z,3.80
2019-03-26T19:16:32.167Z,3.80
2019-03-26T19:19:13.655Z,3.80
2019-03-26T19:21:55.612Z,3.80
2019-03-26T19:24:37.604Z,3.80
2019-03-26T19:27:19.463Z,3.90
2019-03-26T19:30:01.560Z,3.90
2019-03-26T19:32:43.502Z,3.90
2019-03-26T19:35:26.015Z,4.00
2019-03-26T19:38:08.218Z,3.90
2019-03-26T19:40:50.116Z,4.00
2019-03-26T19:43:31.948Z,3.80
2019-03-26T19:46:13.781Z,3.80
2019-03-26T19:48:55.856Z,3.80
2019-03-26T19:51:37.732Z,3.80
2019-03-26T19:54:19.769Z,3.80
2019-03-26T19:57:04.937Z,3.80
2019-03-26T19:59:49.243Z,3.90
2019-03-26T20:02:31.628Z,3.80
2019-03-26T20:05:13.561Z,3.80
2019-03-26T20:10:37.379Z,3.70
2019-03-26T20:13:24.568Z,3.60
2019-03-26T20:16:03.115Z,3.50
2019-03-26T20:18:45.887Z,3.70
2019-03-26T20:21:27.844Z,3.60
2019-03-26T20:24:11.683Z,3.60
2019-03-26T20:26:55.548Z,3.70
2019-03-26T20:29:37.267Z,3.50
2019-03-26T20:32:19.956Z,3.50
2019-03-26T20:35:02.425Z,3.40
2019-03-26T20:37:44.596Z,3.40
2019-03-26T20:40:26.516Z,3.50
2019-03-26T20:43:08.571Z,3.50
2019-03-26T20:45:49.664Z,3.50
2019-03-26T20:48:31.571Z,3.40
2019-03-26T20:51:13.513Z,3.50
2019-03-26T20:53:57.894Z,3.50
2019-03-26T20:56:40.951Z,3.60
2019-03-26T20:59:22.482Z,3.50
2019-03-26T21:02:04.465Z,3.40
2019-03-26T21:04:48.305Z,3.50
2019-03-26T21:07:32.568Z,3.50
2019-03-26T21:10:15.129Z,3.40
2019-03-26T21:12:57.368Z,3.50
2019-03-26T21:15:41.328Z,3.40
2019-03-26T21:18:23.033Z,3.40
2019-03-26T21:21:05.111Z,3.30
2019-03-26T21:23:47.133Z,3.20
2019-03-26T21:26:29.131Z,3.30
2019-03-26T21:29:11.048Z,3.40
2019-03-26T21:31:53.563Z,3.20
2019-03-26T21:34:36.014Z,3.20
2019-03-26T21:37:17.897Z,3.00
2019-03-26T21:39:59.975Z,3.20
2019-03-26T21:42:41.902Z,3.20
2019-03-26T21:45:23.899Z,3.30
2019-03-26T21:48:05.904Z,3.30
2019-03-26T21:50:47.868Z,3.40
2019-03-26T21:53:29.758Z,3.50
2019-03-26T21:56:11.856Z,3.30
2019-03-26T21:58:53.855Z,3.40
2019-03-26T22:01:35.851Z,3.60
2019-03-26T22:04:17.836Z,3.60
2019-03-26T22:06:59.623Z,3.50
2019-03-26T22:09:41.707Z,3.50
2019-03-26T22:12:23.803Z,3.50
2019-03-26T22:15:05.649Z,3.60
2019-03-26T22:17:48.443Z,3.50
2019-03-26T22:20:30.361Z,3.60
2019-03-26T22:23:11.623Z,3.60
2019-03-26T22:25:53.317Z,3.60
2019-03-26T22:28:38.467Z,3.60
2019-03-26T22:31:20.400Z,3.50
2019-03-26T22:34:02.363Z,3.40
2019-03-26T22:36:30.463Z,3.50
2019-03-26T22:39:12.272Z,3.50
2019-03-26T22:41:54.088Z,3.50
2019-03-26T22:44:35.952Z,3.60
2019-03-26T22:47:17.007Z,3.50
2019-03-26T22:49:59.002Z,3.50
2019-03-26T22:52:40.792Z,3.60
2019-03-26T22:55:22.661Z,3.50
2019-03-26T22:57:51.119Z,3.60
2019-03-26T23:00:35.271Z,3.60
2019-03-26T23:03:18.638Z,3.60
2019-03-26T23:06:00.687Z,3.60
2019-03-26T23:08:42.587Z,3.60
2019-03-26T23:11:24.620Z,3.60
2019-03-26T23:14:06.706Z,3.50
2019-03-26T23:16:48.537Z,3.50
2019-03-26T23:19:30.776Z,3.60
2019-03-26T23:22:12.648Z,3.60
2019-03-26T23:24:54.820Z,3.60
2019-03-26T23:27:37.675Z,3.60
2019-03-26T23:30:19.698Z,3.60
2019-03-26T23:33:01.602Z,3.50
2019-03-26T23:35:42.696Z,3.60
2019-03-26T23:38:24.588Z,3.60
2019-03-26T23:41:06.591Z,3.60
2019-03-26T23:43:48.427Z,3.60
2019-03-26T23:46:29.614Z,3.60
2019-03-26T23:49:11.472Z,3.60
2019-03-26T23:51:39.614Z,3.50
2019-03-26T23:54:07.751Z,3.50
2019-03-26T23:56:49.487Z,3.60
2019-03-26T23:59:31.336Z,3.60
